createdAt,value
2018-08-19T00:00:07.983Z,19.20
2018-08-19T00:02:35.438Z,19.10
2018-08-19T00:05:02.911Z,19.00
2018-08-19T00:07:30.367Z,19.10
2018-08-19T00:09:57.831Z,19.10
2018-08-19T00:12:25.289Z,19.00
2018-08-19T00:14:52.800Z,19.10
2018-08-19T00:17:20.248Z,19.20
2018-08-19T00:19:47.707Z,19.10
2018-08-19T00:22:15.188Z,19.10
2018-08-19T00:24:42.747Z,19.00
2018-08-19T00:27:10.312Z,19.00
2018-08-19T00:29:37.779Z,19.00
2018-08-19T00:32:05.338Z,19.10
2018-08-19T00:34:32.904Z,19.10
2018-08-19T00:37:00.360Z,19.10
2018-08-19T00:39:27.812Z,19.10
2018-08-19T00:41:55.271Z,19.20
2018-08-19T00:44:22.746Z,19.20
2018-08-19T00:46:50.325Z,19.10
2018-08-19T00:49:17.774Z,19.10
2018-08-19T00:51:45.237Z,19.10
2018-08-19T00:54:12.683Z,19.20
2018-08-19T00:56:40.147Z,19.10
2018-08-19T00:59:07.599Z,19.10
2018-08-19T01:01:35.057Z,19.10
2018-08-19T01:04:02.540Z,19.20
2018-08-19T01:06:30.115Z,19.20
2018-08-19T01:08:57.682Z,19.20
2018-08-19T01:11:25.247Z,19.10
2018-08-19T01:13:52.721Z,19.10
2018-08-19T01:16:20.175Z,19.10
2018-08-19T01:18:47.637Z,19.20
2018-08-19T01:21:15.088Z,19.10
2018-08-19T01:23:42.544Z,19.10
2018-08-19T01:26:10.006Z,19.00
2018-08-19T01:28:37.470Z,19.10
2018-08-19T01:31:04.919Z,19.20
2018-08-19T01:33:32.372Z,19.10
2018-08-19T01:35:59.831Z,19.10
2018-08-19T01:38:27.325Z,19.10
2018-08-19T01:40:54.779Z,19.00
2018-08-19T01:43:22.230Z,19.10
2018-08-19T01:45:49.686Z,19.00
2018-08-19T01:48:17.170Z,19.00
2018-08-19T01:50:44.741Z,19.00
2018-08-19T01:53:12.187Z,19.00
2018-08-19T01:55:39.665Z,19.00
2018-08-19T01:58:07.223Z,19.00
2018-08-19T02:00:34.698Z,19.00
2018-08-19T02:03:02.248Z,18.90
2018-08-19T02:05:29.818Z,19.00
2018-08-19T02:07:57.288Z,19.00
2018-08-19T02:10:24.740Z,18.90
2018-08-19T02:12:52.219Z,19.00
2018-08-19T02:15:19.675Z,19.00
2018-08-19T02:17:47.141Z,19.00
2018-08-19T02:20:14.691Z,19.00
2018-08-19T02:22:42.147Z,19.00
2018-08-19T02:25:09.636Z,18.90
2018-08-19T02:27:38.596Z,18.90
2018-08-19T02:30:06.043Z,18.90
2018-08-19T02:32:33.550Z,18.90
2018-08-19T02:35:01.013Z,19.00
2018-08-19T02:37:28.561Z,18.80
2018-08-19T02:39:56.128Z,18.80
2018-08-19T02:42:23.584Z,18.80
2018-08-19T02:44:51.044Z,18.80
2018-08-19T02:47:18.499Z,18.90
2018-08-19T02:49:45.963Z,18.80
2018-08-19T02:52:13.419Z,18.80
2018-08-19T02:54:40.872Z,18.80
2018-08-19T02:57:08.365Z,18.70
2018-08-19T02:59:35.817Z,18.80
2018-08-19T03:02:03.270Z,18.70
2018-08-19T03:04:30.742Z,18.70
2018-08-19T03:06:58.205Z,18.70
2018-08-19T03:09:25.667Z,18.60
2018-08-19T03:11:53.948Z,18.60
2018-08-19T03:14:21.407Z,18.60
2018-08-19T03:16:48.971Z,18.60
2018-08-19T03:19:16.538Z,18.60
2018-08-19T03:21:43.991Z,18.60
2018-08-19T03:24:11.451Z,18.60
2018-08-19T03:26:38.899Z,18.60
2018-08-19T03:29:06.389Z,18.60
2018-08-19T03:31:33.851Z,18.60
2018-08-19T03:34:01.315Z,18.60
2018-08-19T03:36:28.772Z,18.60
2018-08-19T03:38:56.217Z,18.60
2018-08-19T03:41:23.674Z,18.60
2018-08-19T03:43:51.135Z,18.60
2018-08-19T03:46:18.608Z,18.50
2018-08-19T03:48:46.069Z,18.60
2018-08-19T03:51:13.524Z,18.60
2018-08-19T03:53:40.976Z,18.50
2018-08-19T03:56:08.436Z,18.50
2018-08-19T03:58:35.996Z,18.50
2018-08-19T04:01:03.464Z,18.50
2018-08-19T04:03:30.964Z,18.40
2018-08-19T04:05:58.419Z,18.40
2018-08-19T04:08:25.871Z,18.40
2018-08-19T04:10:53.435Z,18.50
2018-08-19T04:13:20.883Z,18.40
2018-08-19T04:15:48.343Z,18.40
2018-08-19T04:18:15.804Z,18.40
2018-08-19T04:20:43.309Z,18.40
2018-08-19T04:23:10.759Z,18.50
2018-08-19T04:25:38.327Z,18.50
2018-08-19T04:28:05.778Z,18.40
2018-08-19T04:30:33.239Z,18.40
2018-08-19T04:33:00.813Z,18.40
2018-08-19T04:35:28.371Z,18.30
2018-08-19T04:37:55.824Z,18.30
2018-08-19T04:40:23.295Z,18.30
2018-08-19T04:42:50.755Z,18.30
2018-08-19T04:45:18.221Z,18.30
2018-08-19T04:47:45.780Z,18.30
2018-08-19T04:50:13.351Z,18.30
2018-08-19T04:52:40.815Z,18.30
2018-08-19T04:55:08.271Z,18.40
2018-08-19T04:57:35.741Z,18.40
2018-08-19T05:00:03.303Z,18.40
2018-08-19T05:02:30.770Z,18.30
2018-08-19T05:04:58.207Z,18.20
2018-08-19T05:07:25.691Z,18.30
2018-08-19T05:09:53.150Z,18.30
2018-08-19T05:12:20.606Z,18.30
2018-08-19T05:14:48.171Z,18.40
2018-08-19T05:17:15.625Z,18.40
2018-08-19T05:19:43.091Z,18.30
2018-08-19T05:22:10.548Z,18.30
2018-08-19T05:24:38.007Z,18.40
2018-08-19T05:27:05.460Z,18.30
2018-08-19T05:29:32.953Z,18.30
2018-08-19T05:32:00.400Z,18.20
2018-08-19T05:34:27.856Z,18.20
2018-08-19T05:36:55.323Z,18.20
2018-08-19T05:39:22.794Z,18.30
2018-08-19T05:41:50.250Z,18.30
2018-08-19T05:44:17.727Z,18.30
2018-08-19T05:46:45.186Z,18.40
2018-08-19T05:49:12.647Z,18.30
2018-08-19T05:51:40.207Z,18.30
2018-08-19T05:54:07.844Z,18.30
2018-08-19T05:56:35.247Z,18.30
2018-08-19T05:59:02.707Z,18.30
2018-08-19T06:01:30.171Z,18.30
2018-08-19T06:03:57.641Z,18.30
2018-08-19T06:06:25.179Z,18.40
2018-08-19T06:08:52.754Z,18.40
2018-08-19T06:11:20.215Z,18.40
2018-08-19T06:13:47.691Z,18.40
2018-08-19T06:16:15.162Z,18.40
2018-08-19T06:18:42.627Z,18.40
2018-08-19T06:21:10.876Z,18.60
2018-08-19T06:23:38.337Z,18.50
2018-08-19T06:26:05.801Z,18.50
2018-08-19T06:28:33.372Z,18.50
2018-08-19T06:31:00.828Z,18.40
2018-08-19T06:33:28.391Z,18.40
2018-08-19T06:35:55.843Z,18.40
2018-08-19T06:38:23.331Z,18.50
2018-08-19T06:40:50.797Z,18.60
2018-08-19T06:43:18.378Z,18.50
2018-08-19T06:45:45.756Z,18.40
2018-08-19T06:48:13.273Z,18.50
2018-08-19T06:50:40.725Z,18.50
2018-08-19T06:53:08.180Z,18.50
2018-08-19T06:55:35.656Z,18.60
2018-08-19T06:58:03.121Z,18.60
2018-08-19T07:00:30.579Z,18.60
2018-08-19T07:02:58.037Z,18.60
2018-08-19T07:05:25.564Z,18.60
2018-08-19T07:07:53.026Z,18.60
2018-08-19T07:10:20.471Z,18.70
2018-08-19T07:12:48.774Z,18.60
2018-08-19T07:15:16.276Z,18.60
2018-08-19T07:17:43.759Z,18.70
2018-08-19T07:20:11.214Z,18.70
2018-08-19T07:22:38.788Z,18.70
2018-08-19T07:25:06.261Z,18.80
2018-08-19T07:27:33.722Z,18.80
2018-08-19T07:30:01.987Z,18.70
2018-08-19T07:32:29.561Z,18.70
2018-08-19T07:34:57.822Z,18.70
2018-08-19T07:37:25.267Z,18.70
2018-08-19T07:39:52.760Z,18.70
2018-08-19T07:42:20.299Z,18.70
2018-08-19T07:44:47.748Z,18.70
2018-08-19T07:47:15.210Z,18.70
2018-08-19T07:49:42.697Z,18.60
2018-08-19T07:52:10.169Z,18.70
2018-08-19T07:54:37.716Z,18.70
2018-08-19T07:57:05.172Z,18.60
2018-08-19T07:59:32.743Z,18.60
2018-08-19T08:02:00.305Z,18.60
2018-08-19T08:04:27.764Z,18.70
2018-08-19T08:06:55.221Z,18.70
2018-08-19T08:09:22.701Z,18.70
2018-08-19T08:11:50.176Z,18.70
2018-08-19T08:14:17.727Z,18.70
2018-08-19T08:16:45.191Z,18.70
2018-08-19T08:19:12.753Z,18.60
2018-08-19T08:21:40.484Z,18.60
2018-08-19T08:24:07.767Z,18.60
2018-08-19T08:26:35.333Z,18.70
2018-08-19T08:29:02.855Z,18.60
2018-08-19T08:31:30.263Z,18.60
2018-08-19T08:33:57.729Z,18.60
2018-08-19T08:36:25.186Z,18.60
2018-08-19T08:38:52.655Z,18.50
2018-08-19T08:41:21.608Z,18.50
2018-08-19T08:43:49.104Z,18.50
2018-08-19T08:46:16.573Z,18.50
2018-08-19T08:48:44.119Z,18.50
2018-08-19T08:51:11.571Z,18.50
2018-08-19T08:53:39.030Z,18.50
2018-08-19T08:56:06.511Z,18.40
2018-08-19T08:58:34.082Z,18.30
2018-08-19T09:01:01.553Z,18.30
2018-08-19T09:03:29.004Z,18.30
2018-08-19T09:05:56.462Z,18.30
2018-08-19T09:08:23.935Z,18.30
2018-08-19T09:10:51.399Z,18.30
2018-08-19T09:13:18.858Z,18.30
2018-08-19T09:15:46.321Z,18.30
2018-08-19T09:18:13.875Z,18.30
2018-08-19T09:20:41.334Z,18.30
2018-08-19T09:23:08.982Z,18.30
2018-08-19T09:25:36.270Z,18.40
2018-08-19T09:28:04.489Z,18.40
2018-08-19T09:30:32.001Z,18.40
2018-08-19T09:32:59.548Z,18.40
2018-08-19T09:35:27.038Z,18.50
2018-08-19T09:37:54.510Z,18.40
2018-08-19T09:40:22.053Z,18.40
2018-08-19T09:42:49.617Z,18.50
2018-08-19T09:45:17.062Z,18.50
2018-08-19T09:47:44.574Z,18.60
2018-08-19T09:50:11.992Z,18.70
2018-08-19T09:52:39.450Z,18.70
2018-08-19T09:55:06.915Z,18.70
2018-08-19T09:57:34.386Z,18.70
2018-08-19T10:00:01.837Z,18.80
2018-08-19T10:02:30.438Z,18.90
2018-08-19T10:04:57.909Z,18.90
2018-08-19T10:07:25.551Z,19.00
2018-08-19T10:09:52.931Z,19.10
2018-08-19T10:12:20.390Z,19.20
2018-08-19T10:14:47.855Z,19.20
2018-08-19T10:17:15.306Z,19.20
2018-08-19T10:19:42.768Z,19.20
2018-08-19T10:22:10.233Z,19.30
2018-08-19T10:24:37.718Z,19.30
2018-08-19T10:27:05.180Z,19.30
2018-08-19T10:29:33.449Z,19.30
2018-08-19T10:32:00.912Z,19.30
2018-08-19T10:34:28.463Z,19.30
2018-08-19T10:36:56.036Z,19.40
2018-08-19T10:39:23.596Z,19.40
2018-08-19T10:41:52.290Z,19.60
2018-08-19T10:44:19.857Z,19.60
2018-08-19T10:46:47.427Z,19.60
2018-08-19T10:49:14.890Z,19.70
2018-08-19T10:51:42.343Z,19.70
2018-08-19T10:54:10.922Z,19.80
2018-08-19T10:56:38.496Z,19.80
2018-08-19T10:59:06.055Z,19.90
2018-08-19T11:01:33.513Z,20.00
2018-08-19T11:04:00.971Z,20.10
2018-08-19T11:06:29.617Z,20.30
2018-08-19T11:08:57.044Z,20.30
2018-08-19T11:11:24.500Z,20.30
2018-08-19T11:13:52.714Z,20.40
2018-08-19T11:16:20.951Z,20.50
2018-08-19T11:18:48.514Z,20.40
2018-08-19T11:21:15.972Z,20.50
2018-08-19T11:23:43.420Z,20.50
2018-08-19T11:26:10.893Z,20.40
2018-08-19T11:28:38.367Z,20.30
2018-08-19T11:31:05.823Z,20.30
2018-08-19T11:33:33.296Z,20.30
2018-08-19T11:36:01.809Z,20.30
2018-08-19T11:38:30.066Z,20.40
2018-08-19T11:40:57.527Z,20.40
2018-08-19T11:43:24.998Z,20.50
2018-08-19T11:45:52.444Z,20.50
2018-08-19T11:48:20.012Z,20.60
2018-08-19T11:50:47.463Z,20.70
2018-08-19T11:53:14.931Z,20.60
2018-08-19T11:55:42.392Z,20.50
2018-08-19T11:58:09.843Z,20.50
2018-08-19T12:00:37.304Z,20.60
2018-08-19T12:03:04.766Z,20.60
2018-08-19T12:05:32.231Z,20.60
2018-08-19T12:07:59.694Z,20.70
2018-08-19T12:10:28.291Z,20.90
2018-08-19T12:12:55.768Z,20.80
2018-08-19T12:15:24.442Z,20.90
2018-08-19T12:17:51.918Z,20.90
2018-08-19T12:20:19.380Z,21.00
2018-08-19T12:22:46.839Z,21.00
2018-08-19T12:25:14.400Z,21.10
2018-08-19T12:27:41.986Z,21.20
2018-08-19T12:30:09.419Z,21.20
2018-08-19T12:32:36.891Z,21.10
2018-08-19T12:35:04.360Z,21.10
2018-08-19T12:37:31.910Z,21.10
2018-08-19T12:40:00.808Z,21.10
2018-08-19T12:42:28.270Z,21.10
2018-08-19T12:44:55.876Z,21.10
2018-08-19T12:47:23.980Z,21.10
2018-08-19T12:49:51.483Z,21.10
2018-08-19T12:52:19.039Z,21.10
2018-08-19T12:54:46.502Z,21.00
2018-08-19T12:57:13.975Z,21.10
2018-08-19T12:59:41.436Z,21.10
2018-08-19T13:02:10.404Z,21.10
2018-08-19T13:04:37.883Z,21.10
2018-08-19T13:07:05.354Z,21.20
2018-08-19T13:09:32.907Z,21.20
2018-08-19T13:12:00.479Z,21.40
2018-08-19T13:14:27.943Z,21.60
2018-08-19T13:16:55.502Z,21.70
2018-08-19T13:19:23.064Z,21.70
2018-08-19T13:21:50.630Z,21.70
2018-08-19T13:24:18.102Z,21.90
2018-08-19T13:26:45.560Z,21.90
2018-08-19T13:29:13.112Z,21.70
2018-08-19T13:31:40.575Z,21.60
2018-08-19T13:34:08.019Z,21.50
2018-08-19T13:36:35.505Z,21.70
2018-08-19T13:39:02.964Z,21.70
2018-08-19T13:41:30.536Z,22.00
2018-08-19T13:43:57.986Z,22.10
2018-08-19T13:46:25.555Z,21.90
2018-08-19T13:48:53.117Z,21.70
2018-08-19T13:51:20.582Z,21.60
2018-08-19T13:53:48.043Z,21.50
2018-08-19T13:56:15.609Z,21.40
2018-08-19T13:58:43.071Z,21.40
2018-08-19T14:01:10.624Z,21.40
2018-08-19T14:03:38.089Z,21.40
2018-08-19T14:06:05.626Z,21.40
2018-08-19T14:08:33.123Z,21.40
2018-08-19T14:11:00.699Z,21.30
2018-08-19T14:13:28.157Z,21.30
2018-08-19T14:15:55.615Z,21.20
2018-08-19T14:18:23.166Z,21.20
2018-08-19T14:20:50.636Z,21.20
2018-08-19T14:23:18.214Z,21.20
2018-08-19T14:25:45.774Z,21.20
2018-08-19T14:28:13.333Z,21.20
2018-08-19T14:30:40.833Z,21.20
2018-08-19T14:33:08.356Z,21.20
2018-08-19T14:35:35.820Z,21.20
2018-08-19T14:38:03.270Z,21.10
2018-08-19T14:40:30.839Z,21.10
2018-08-19T14:42:58.321Z,21.10
2018-08-19T14:45:25.778Z,21.20
2018-08-19T14:47:53.276Z,21.10
2018-08-19T14:50:20.711Z,21.20
2018-08-19T14:52:48.172Z,21.20
2018-08-19T14:55:15.727Z,21.10
2018-08-19T14:57:43.294Z,21.10
2018-08-19T15:00:10.740Z,21.10
2018-08-19T15:02:38.200Z,21.10
2018-08-19T15:05:05.670Z,21.10
2018-08-19T15:07:33.145Z,21.10
2018-08-19T15:10:02.173Z,21.00
2018-08-19T15:12:29.591Z,21.00
2018-08-19T15:14:57.058Z,21.00
2018-08-19T15:17:25.300Z,21.10
2018-08-19T15:19:52.866Z,21.10
2018-08-19T15:22:20.265Z,21.10
2018-08-19T15:24:47.723Z,21.10
2018-08-19T15:27:15.288Z,21.10
2018-08-19T15:29:42.859Z,21.00
2018-08-19T15:32:10.637Z,20.90
2018-08-19T15:34:37.888Z,21.00
2018-08-19T15:37:05.355Z,20.90
2018-08-19T15:39:32.910Z,21.00
2018-08-19T15:42:00.467Z,20.90
2018-08-19T15:44:27.937Z,20.90
2018-08-19T15:46:55.399Z,20.90
2018-08-19T15:49:22.956Z,21.00
2018-08-19T15:51:50.422Z,20.90
2018-08-19T15:54:17.882Z,20.90
2018-08-19T15:56:45.353Z,20.90
2018-08-19T15:59:14.325Z,20.90
2018-08-19T16:01:41.799Z,20.90
2018-08-19T16:04:09.275Z,20.90
2018-08-19T16:06:36.739Z,20.80
2018-08-19T16:09:04.292Z,20.90
2018-08-19T16:11:31.853Z,20.80
2018-08-19T16:13:59.318Z,20.90
2018-08-19T16:16:26.771Z,21.00
2018-08-19T16:18:54.244Z,21.00
2018-08-19T16:21:21.696Z,20.90
2018-08-19T16:23:49.165Z,20.90
2018-08-19T16:26:16.615Z,20.90
2018-08-19T16:28:44.202Z,20.90
2018-08-19T16:31:11.681Z,20.90
2018-08-19T16:33:40.037Z,21.00
2018-08-19T16:36:07.491Z,21.00
2018-08-19T16:38:34.968Z,21.00
2018-08-19T16:41:02.524Z,21.00
2018-08-19T16:43:30.087Z,20.90
2018-08-19T16:45:57.551Z,20.80
2018-08-19T16:48:25.009Z,20.80
2018-08-19T16:50:52.489Z,20.70
2018-08-19T16:53:19.932Z,20.80
2018-08-19T16:55:47.501Z,20.80
2018-08-19T16:58:14.968Z,20.70
2018-08-19T17:00:42.533Z,20.70
2018-08-19T17:03:10.029Z,20.70
2018-08-19T17:05:37.460Z,20.80
2018-08-19T17:08:04.903Z,20.80
2018-08-19T17:10:32.470Z,20.70
2018-08-19T17:12:59.932Z,20.80
2018-08-19T17:15:27.506Z,20.80
2018-08-19T17:17:54.970Z,20.80
2018-08-19T17:20:22.539Z,20.80
2018-08-19T17:22:50.813Z,20.70
2018-08-19T17:25:18.368Z,20.70
2018-08-19T17:27:45.838Z,20.70
2018-08-19T17:30:13.311Z,20.70
2018-08-19T17:32:40.826Z,20.50
2018-08-19T17:35:08.232Z,20.60
2018-08-19T17:37:35.785Z,20.70
2018-08-19T17:40:03.260Z,20.60
2018-08-19T17:42:30.812Z,20.70
2018-08-19T17:44:58.279Z,20.60
2018-08-19T17:47:25.828Z,20.70
2018-08-19T17:49:53.403Z,20.60
2018-08-19T17:52:20.934Z,20.60
2018-08-19T17:54:48.327Z,20.70
2018-08-19T17:57:15.942Z,20.80
2018-08-19T17:59:43.565Z,20.80
2018-08-19T18:02:11.024Z,20.70
2018-08-19T18:04:38.479Z,20.60
2018-08-19T18:07:05.946Z,20.70
2018-08-19T18:09:33.396Z,20.70
2018-08-19T18:12:00.929Z,20.70
2018-08-19T18:14:28.374Z,20.50
2018-08-19T18:16:56.712Z,20.80
2018-08-19T18:19:24.175Z,20.80
2018-08-19T18:21:51.639Z,20.70
2018-08-19T18:24:19.226Z,20.70
2018-08-19T18:26:46.759Z,20.50
2018-08-19T18:29:14.238Z,20.50
2018-08-19T18:31:41.704Z,20.60
2018-08-19T18:34:09.281Z,20.60
2018-08-19T18:36:36.722Z,20.60
2018-08-19T18:39:04.180Z,20.60
2018-08-19T18:41:31.626Z,20.60
2018-08-19T18:43:59.105Z,20.70
2018-08-19T18:46:26.670Z,20.70
2018-08-19T18:48:54.121Z,20.60
2018-08-19T18:51:21.575Z,20.60
2018-08-19T18:53:49.048Z,20.70
2018-08-19T18:56:16.621Z,20.60
2018-08-19T18:58:44.082Z,20.50
2018-08-19T19:03:42.979Z,20.50
2018-08-19T19:06:10.430Z,20.50
2018-08-19T19:08:37.928Z,20.50
2018-08-19T19:11:05.479Z,20.50
2018-08-19T19:13:32.943Z,20.50
2018-08-19T19:16:00.418Z,20.50
2018-08-19T19:18:27.967Z,20.40
2018-08-19T19:20:55.415Z,20.40
2018-08-19T19:23:22.938Z,20.20
2018-08-19T19:25:50.351Z,20.10
2018-08-19T19:28:17.819Z,20.10
2018-08-19T19:30:45.387Z,20.10
2018-08-19T19:33:12.951Z,20.10
2018-08-19T19:35:40.515Z,20.00
2018-08-19T19:38:08.077Z,20.10
2018-08-19T19:40:35.536Z,20.10
2018-08-19T19:43:03.005Z,20.00
2018-08-19T19:45:30.475Z,20.00
2018-08-19T19:47:58.027Z,20.10
2018-08-19T19:50:25.480Z,20.00
2018-08-19T19:52:52.945Z,20.00
2018-08-19T19:55:20.510Z,20.00
2018-08-19T19:57:47.976Z,20.00
2018-08-19T20:00:15.437Z,20.10
2018-08-19T20:02:42.892Z,20.00
2018-08-19T20:05:10.365Z,20.00
2018-08-19T20:07:37.830Z,20.00
2018-08-19T20:10:05.295Z,20.10
2018-08-19T20:12:32.882Z,20.00
2018-08-19T20:15:00.316Z,20.00
2018-08-19T20:17:27.778Z,20.00
2018-08-19T20:19:55.227Z,20.00
2018-08-19T20:22:22.811Z,20.00
2018-08-19T20:24:50.279Z,20.00
2018-08-19T20:27:17.739Z,20.00
2018-08-19T20:29:45.199Z,20.00
2018-08-19T20:32:12.669Z,20.00
2018-08-19T20:34:40.126Z,20.00
2018-08-19T20:37:08.355Z,20.00
2018-08-19T20:39:35.823Z,20.00
2018-08-19T20:42:03.311Z,20.00
2018-08-19T20:44:30.785Z,19.90
2018-08-19T20:46:58.345Z,19.90
2018-08-19T20:49:25.805Z,20.00
2018-08-19T20:51:53.263Z,19.90
2018-08-19T20:54:20.720Z,19.80
2018-08-19T20:56:48.179Z,19.90
2018-08-19T20:59:15.639Z,19.90
2018-08-19T21:01:43.116Z,19.90
2018-08-19T21:04:10.583Z,19.90
2018-08-19T21:06:38.150Z,19.90
2018-08-19T21:09:05.718Z,19.90
2018-08-19T21:11:33.177Z,19.90
2018-08-19T21:14:00.635Z,19.90
2018-08-19T21:16:28.204Z,19.80
2018-08-19T21:18:55.661Z,19.80
2018-08-19T21:21:23.123Z,19.80
2018-08-19T21:23:50.575Z,19.80
2018-08-19T21:26:18.054Z,19.80
2018-08-19T21:28:45.515Z,19.90
2018-08-19T21:31:12.991Z,19.80
2018-08-19T21:33:41.213Z,19.90
2018-08-19T21:36:08.663Z,19.90
2018-08-19T21:38:36.132Z,19.90
2018-08-19T21:41:03.611Z,19.90
2018-08-19T21:43:31.090Z,19.90
2018-08-19T21:45:58.547Z,19.80
2018-08-19T21:48:26.130Z,19.90
2018-08-19T21:50:53.691Z,19.80
2018-08-19T21:53:21.256Z,19.90
2018-08-19T21:55:48.714Z,19.80
2018-08-19T21:58:16.170Z,19.80
2018-08-19T22:00:43.626Z,19.80
2018-08-19T22:03:11.095Z,19.90
2018-08-19T22:05:38.565Z,19.90
2018-08-19T22:08:06.167Z,19.90
2018-08-19T22:10:33.587Z,19.90
2018-08-19T22:13:01.157Z,19.90
2018-08-19T22:15:28.616Z,19.90
2018-08-19T22:17:56.159Z,19.90
2018-08-19T22:20:23.651Z,19.90
2018-08-19T22:22:51.116Z,19.90
2018-08-19T22:25:18.575Z,19.80
2018-08-19T22:27:46.811Z,19.90
2018-08-19T22:30:14.275Z,19.90
2018-08-19T22:32:41.728Z,19.90
2018-08-19T22:35:09.183Z,19.80
2018-08-19T22:37:36.636Z,19.80
2018-08-19T22:40:04.138Z,19.90
2018-08-19T22:42:31.551Z,19.90
2018-08-19T22:44:59.807Z,19.90
2018-08-19T22:47:27.354Z,19.90
2018-08-19T22:49:54.934Z,19.90
2018-08-19T22:52:22.383Z,19.90
2018-08-19T22:54:49.951Z,19.90
2018-08-19T22:57:17.511Z,20.00
2018-08-19T22:59:45.079Z,19.90
2018-08-19T23:02:12.552Z,19.90
2018-08-19T23:04:40.102Z,19.90
2018-08-19T23:07:07.688Z,19.90
2018-08-19T23:09:35.954Z,19.90
2018-08-19T23:12:03.411Z,19.90
2018-08-19T23:14:54.817Z,19.90
2018-08-19T23:17:22.285Z,19.90
2018-08-19T23:19:49.743Z,19.90
2018-08-19T23:22:17.210Z,19.90
2018-08-19T23:24:44.786Z,19.90
2018-08-19T23:27:12.242Z,19.90
2018-08-19T23:29:39.696Z,19.90
2018-08-19T23:32:07.168Z,19.90
2018-08-19T23:34:34.726Z,19.90
2018-08-19T23:37:02.328Z,19.90
2018-08-19T23:39:30.571Z,19.90
2018-08-19T23:41:58.029Z,19.90
2018-08-19T23:44:25.602Z,19.90
2018-08-19T23:46:53.067Z,19.90
2018-08-19T23:49:20.623Z,19.80
2018-08-19T23:51:48.085Z,19.90
2018-08-19T23:54:15.528Z,20.00
2018-08-19T23:56:42.987Z,19.90
2018-08-19T23:59:10.447Z,19.90
